Arties, Catalunya

latitud = 42° 42' 01''N | longitud = 00° 52' 37''E
1161 metros sobre el nivel del mar | datos mensuales

Fecha, hora, temperatura, viento dirección y velocidad, humedad y presión.

  • 23-04-2018 10:00:00 | 14.90°C | Calma |0.00 km/h | 66.00% | 0.00 hPa
  • 23-04-2018 09:00:00 | 11.90°C | Calma |0.00 km/h | 75.00% | 0.00 hPa
  • 23-04-2018 08:00:00 | 9.20°C | Calma |0.00 km/h | 84.00% | 0.00 hPa
  • 23-04-2018 07:00:00 | 8.20°C | Calma |0.00 km/h | 80.00% | 0.00 hPa
  • 23-04-2018 06:00:00 | 7.80°C | Calma |0.00 km/h | 82.00% | 0.00 hPa
  • 23-04-2018 05:00:00 | 8.00°C | Este |3.00 km/h | 83.00% | 0.00 hPa
  • 23-04-2018 04:00:00 | 8.30°C | Calma |0.00 km/h | 80.00% | 0.00 hPa
  • 23-04-2018 03:00:00 | 10.30°C | Calma |0.00 km/h | 69.00% | 0.00 hPa
  • 23-04-2018 02:00:00 | 13.10°C | Este |5.00 km/h | 62.00% | 0.00 hPa
  • 23-04-2018 01:00:00 | 13.00°C | Este |5.00 km/h | 65.00% | 0.00 hPa
  • 23-04-2018 00:00:00 | 13.10°C | Este |6.00 km/h | 63.00% | 0.00 hPa
  • 22-04-2018 23:00:00 | 12.80°C | Calma |0.00 km/h | 64.00% | 0.00 hPa
  • 22-04-2018 22:00:00 | 14.60°C | Este |6.00 km/h | 58.00% | 0.00 hPa
  • 22-04-2018 21:00:00 | 15.10°C | Nordeste |4.00 km/h | 58.00% | 0.00 hPa
  • 22-04-2018 20:00:00 | 18.90°C | Sudoeste |4.00 km/h | 45.00% | 0.00 hPa
  • 22-04-2018 19:00:00 | 20.30°C | Oeste |4.00 km/h | 43.00% | 0.00 hPa
  • 22-04-2018 18:00:00 | 21.60°C | Sudoeste |4.00 km/h | 41.00% | 0.00 hPa
  • 22-04-2018 17:00:00 | 22.00°C | Sudoeste |3.00 km/h | 40.00% | 0.00 hPa
  • 22-04-2018 16:00:00 | 22.10°C | Oeste |5.00 km/h | 38.00% | 0.00 hPa
  • 22-04-2018 15:00:00 | 23.00°C | Oeste |6.00 km/h | 36.00% | 0.00 hPa
  • 22-04-2018 14:00:00 | 23.30°C | Sudoeste |6.00 km/h | 35.00% | 0.00 hPa
  • 22-04-2018 13:00:00 | 22.50°C | Sudoeste |4.00 km/h | 35.00% | 0.00 hPa
  • 22-04-2018 12:00:00 | 20.60°C | Sudoeste |2.00 km/h | 38.00% | 0.00 hPa
  • 22-04-2018 11:00:00 | 17.20°C | Calma |0.00 km/h | 47.00% | 0.00 hPa